Time;durP1;ratioP1;P1;durP2;ratioP2;P2;SDS_P1;SDS_P2;PMS_P1;PMS_P2;Temp;Humidity;BMP_temperature;BMP_pressure;BME280_temperature;BME280_humidity;BME280_pressure;Samples;Min_cycle;Max_cycle;Signal;HPM_P1;HPM_P2
2021/03/21 00:02:12;;;;;;;3.37;1.77;;;;;;;;;;5091488;28;20036;-58
2021/03/21 00:04:37;;;;;;;5.97;1.90;;;;;;;;;;5093546;28;20038;-59
2021/03/21 00:07:02;;;;;;;3.30;1.77;;;;;;;;;;5093660;28;20521;-59
2021/03/21 00:09:28;;;;;;;3.63;2.10;;;;;;;;;;5076736;28;20036;-58
2021/03/21 00:11:53;;;;;;;4.00;1.63;;;;;;;;;;5075736;28;20058;-60
2021/03/21 00:14:19;;;;;;;4.03;1.83;;;;;;;;;;5074578;28;20119;-58
2021/03/21 00:16:44;;;;;;;7.47;1.90;;;;;;;;;;5093735;28;20028;-58
2021/03/21 00:19:09;;;;;;;3.07;1.90;;;;;;;;;;5074294;28;20277;-58
2021/03/21 00:21:35;;;;;;;3.17;2.00;;;;;;;;;;5093702;28;20012;-58
2021/03/21 00:24:00;;;;;;;4.17;2.30;;;;;;;;;;5074707;28;20043;-58
2021/03/21 00:26:26;;;;;;;2.97;1.77;;;;;;;;;;5074413;28;20039;-57
2021/03/21 00:28:51;;;;;;;3.63;2.03;;;;;;;;;;5093248;28;20123;-57
2021/03/21 00:31:17;;;;;;;3.30;1.67;;;;;;;;;;5092743;28;20032;-58
2021/03/21 00:33:42;;;;;;;4.43;1.80;;;;;;;;;;5074972;28;20078;-58
2021/03/21 00:36:09;;;;;;;4.40;2.10;;;;;;;;;;5092852;28;20039;-57
2021/03/21 00:38:53;;;;;;;2.42;1.73;;;;;;;;;;5092681;28;20024;-58
2021/03/21 00:41:20;;;;;;;2.65;1.83;;;;;;;;;;5091799;28;20032;-59
2021/03/21 00:43:45;;;;;;;3.28;1.70;;;;;;;;;;5092931;28;20157;-59
2021/03/21 00:46:12;;;;;;;5.93;2.13;;;;;;;;;;5092467;28;20111;-58
2021/03/21 00:48:39;;;;;;;4.75;2.30;;;;;;;;;;5074395;28;20111;-58
2021/03/21 00:51:04;;;;;;;4.78;2.40;;;;;;;;;;5074854;28;20044;-58
2021/03/21 00:53:30;;;;;;;5.28;2.50;;;;;;;;;;5093328;28;20510;-58
2021/03/21 00:55:55;;;;;;;4.00;2.53;;;;;;;;;;5076064;28;20044;-58
2021/03/21 00:58:21;;;;;;;2.30;1.70;;;;;;;;;;5075320;28;20031;-58
2021/03/21 01:00:47;;;;;;;;;;;;;;;;;;5076425;28;20111;-58
2021/03/21 01:03:12;;;;;;;3.00;2.07;;;;;;;;;;5092886;28;19951;-58
2021/03/21 01:05:38;;;;;;;3.83;2.10;;;;;;;;;;5093979;28;20032;-59
2021/03/21 01:08:04;;;;;;;2.47;1.40;;;;;;;;;;5093692;28;20027;-58
2021/03/21 01:10:32;;;;;;;4.47;2.53;;;;;;;;;;5075223;28;20277;-59
2021/03/21 01:12:58;;;;;;;4.15;2.80;;;;;;;;;;5092106;28;20425;-58
2021/03/21 01:15:24;;;;;;;6.35;2.53;;;;;;;;;;5093036;28;20122;-59
2021/03/21 01:17:50;;;;;;;6.43;2.30;;;;;;;;;;5109119;28;20085;-59
2021/03/21 01:20:16;;;;;;;6.20;2.53;;;;;;;;;;5095228;28;20031;-58
2021/03/21 01:22:41;;;;;;;5.18;3.50;;;;;;;;;;5114069;28;20077;-59
2021/03/21 01:25:07;;;;;;;5.07;2.53;;;;;;;;;;5113588;28;20541;-59
2021/03/21 01:27:33;;;;;;;7.18;3.30;;;;;;;;;;5094680;28;20024;-58
2021/03/21 01:29:58;;;;;;;7.20;3.03;;;;;;;;;;5095429;28;20161;-58
2021/03/21 01:32:24;;;;;;;5.63;2.90;;;;;;;;;;5113111;28;20766;-58
2021/03/21 01:34:49;;;;;;;9.17;3.30;;;;;;;;;;5095080;28;20047;-59
2021/03/21 01:37:14;;;;;;;3.67;2.50;;;;;;;;;;5112717;28;20027;-58
2021/03/21 01:39:40;;;;;;;9.47;4.33;;;;;;;;;;5095090;28;20110;-59
2021/03/21 01:42:10;;;;;;;7.40;3.73;;;;;;;;;;5095120;28;20536;-59
2021/03/21 01:44:36;;;;;;;15.55;6.85;;;;;;;;;;5094325;28;20039;-58
2021/03/21 01:47:04;;;;;;;10.07;5.40;;;;;;;;;;5093004;28;20023;-58
2021/03/21 01:49:32;;;;;;;11.40;4.75;;;;;;;;;;5090998;28;20034;-58
2021/03/21 01:51:58;;;;;;;5.63;3.50;;;;;;;;;;5091530;28;20053;-58
2021/03/21 01:54:24;;;;;;;8.20;3.35;;;;;;;;;;5092115;28;20028;-59
2021/03/21 01:56:50;;;;;;;6.32;3.75;;;;;;;;;;5092636;28;20464;-58
2021/03/21 01:59:15;;;;;;;7.25;4.22;;;;;;;;;;5092753;28;20032;-56
2021/03/21 02:01:42;;;;;;;16.17;5.72;;;;;;;;;;5091663;28;20032;-59
2021/03/21 02:04:08;;;;;;;12.73;6.32;;;;;;;;;;5092378;28;20062;-59
2021/03/21 02:06:33;;;;;;;14.30;5.78;;;;;;;;;;5092206;28;20044;-62
2021/03/21 02:09:10;;;;;;;10.60;6.47;;;;;;;;;;5091932;28;20055;-59
2021/03/21 02:11:35;;;;;;;;;;;;;;;;;;5090692;28;20044;-59
2021/03/21 02:14:27;;;;;;;13.63;7.43;;;;;;;;;;5092517;28;19915;-59
2021/03/21 02:17:01;;;;;;;12.55;7.40;;;;;;;;;;5089121;28;20044;-58
2021/03/21 02:19:39;;;;;;;15.02;8.93;;;;;;;;;;5091631;28;20032;-58
2021/03/21 02:22:05;;;;;;;26.83;10.47;;;;;;;;;;5091160;28;20186;-59
2021/03/21 02:24:30;;;;;;;;;;;;;;;;;;5090008;28;20035;-58
2021/03/21 02:27:11;;;;;;;19.47;11.73;;;;;;;;;;5091979;28;19908;-57
2021/03/21 02:29:42;;;;;;;23.65;13.48;;;;;;;;;;5091624;28;20526;-59
2021/03/21 02:32:10;;;;;;;28.30;14.35;;;;;;;;;;5092266;28;20032;-59
2021/03/21 02:34:42;;;;;;;27.88;15.38;;;;;;;;;;5090111;28;20357;-59
2021/03/21 02:37:18;;;;;;;31.30;16.85;;;;;;;;;;5092222;28;20468;-59
2021/03/21 02:39:50;;;;;;;39.10;18.13;;;;;;;;;;5091324;28;20024;-58
2021/03/21 02:42:24;;;;;;;44.40;19.75;;;;;;;;;;5091944;28;20028;-59
2021/03/21 02:44:53;;;;;;;39.88;18.65;;;;;;;;;;5092033;28;20032;-58
2021/03/21 02:47:21;;;;;;;41.05;20.38;;;;;;;;;;5092076;28;20053;-59
2021/03/21 02:49:48;;;;;;;48.75;22.48;;;;;;;;;;5091966;28;20032;-59
2021/03/21 02:52:13;;;;;;;;;;;;;;;;;;5092318;28;20119;-59
2021/03/21 02:54:42;;;;;;;41.40;19.40;;;;;;;;;;5090922;28;20054;-60
2021/03/21 02:57:10;;;;;;;37.15;19.90;;;;;;;;;;5091813;28;20051;-59
2021/03/21 02:59:37;;;;;;;35.55;18.05;;;;;;;;;;5091137;28;20055;-60
2021/03/21 03:02:13;;;;;;;36.08;19.50;;;;;;;;;;5091872;28;20472;-59
2021/03/21 03:04:47;;;;;;;33.72;18.50;;;;;;;;;;5072881;28;20028;-59
2021/03/21 03:07:32;;;;;;;34.28;18.27;;;;;;;;;;5091583;28;20032;-57
2021/03/21 03:10:01;;;;;;;32.67;17.10;;;;;;;;;;5077499;28;20430;-59
2021/03/21 03:12:31;;;;;;;36.08;18.98;;;;;;;;;;5090506;28;20048;-59
2021/03/21 03:14:57;;;;;;;36.60;19.05;;;;;;;;;;5091643;28;20099;-58
2021/03/21 03:17:41;;;;;;;37.30;19.10;;;;;;;;;;5091485;28;20071;-59
2021/03/21 03:20:23;;;;;;;34.75;17.13;;;;;;;;;;5091566;28;20033;-59
2021/03/21 03:22:49;;;;;;;40.00;19.05;;;;;;;;;;5089392;28;20044;-60
2021/03/21 03:25:32;;;;;;;36.35;17.83;;;;;;;;;;5091484;28;20026;-61
2021/03/21 03:28:16;;;;;;;34.22;19.45;;;;;;;;;;5091350;28;20028;-59
2021/03/21 03:30:55;;;;;;;37.20;19.23;;;;;;;;;;5090910;28;20486;-59
2021/03/21 03:33:22;;;;;;;38.90;20.27;;;;;;;;;;5091397;28;20043;-58
2021/03/21 03:35:47;;;;;;;39.13;20.13;;;;;;;;;;5090564;28;20039;-59
2021/03/21 03:38:13;;;;;;;42.03;20.77;;;;;;;;;;5095314;28;20396;-59
2021/03/21 03:40:41;;;;;;;41.90;21.05;;;;;;;;;;5093746;28;20473;-60
2021/03/21 03:43:18;;;;;;;40.70;21.55;;;;;;;;;;5095305;28;20024;-59
2021/03/21 03:46:00;;;;;;;41.50;20.65;;;;;;;;;;5095803;28;20115;-59
2021/03/21 03:48:28;;;;;;;36.38;21.17;;;;;;;;;;5095630;28;20020;-58
2021/03/21 03:50:57;;;;;;;38.28;20.35;;;;;;;;;;5093415;28;20028;-57
2021/03/21 03:53:37;;;;;;;43.78;22.20;;;;;;;;;;5095183;28;20032;-59
2021/03/21 03:56:06;;;;;;;39.70;20.02;;;;;;;;;;5095994;28;20043;-59
2021/03/21 03:58:34;;;;;;;36.67;20.52;;;;;;;;;;5094929;28;20034;-61
2021/03/21 04:01:02;;;;;;;39.80;20.60;;;;;;;;;;5093846;28;20089;-58
2021/03/21 04:03:31;;;;;;;39.25;21.15;;;;;;;;;;5095366;28;20024;-58
2021/03/21 04:05:57;;;;;;;42.63;22.08;;;;;;;;;;5093769;28;20028;-59
2021/03/21 04:08:29;;;;;;;38.70;19.85;;;;;;;;;;5094594;28;20470;-59
2021/03/21 04:11:00;;;;;;;39.60;22.67;;;;;;;;;;5093058;28;20031;-58
2021/03/21 04:13:28;;;;;;;39.90;20.48;;;;;;;;;;5094533;28;20089;-59
2021/03/21 04:15:55;;;;;;;40.97;21.10;;;;;;;;;;5094347;28;20032;-58
2021/03/21 04:18:35;;;;;;;42.80;20.98;;;;;;;;;;5094888;28;20036;-59
2021/03/21 04:21:17;;;;;;;39.33;20.15;;;;;;;;;;5094716;28;20495;-58
2021/03/21 04:23:45;;;;;;;39.65;20.13;;;;;;;;;;5092526;28;20032;-61
2021/03/21 04:26:16;;;;;;;36.78;19.10;;;;;;;;;;5093559;28;20081;-59
2021/03/21 04:28:43;;;;;;;46.28;23.10;;;;;;;;;;5094213;28;20028;-58
2021/03/21 04:31:10;;;;;;;36.38;19.95;;;;;;;;;;5094330;28;20414;-59
2021/03/21 04:33:50;;;;;;;49.08;22.67;;;;;;;;;;5093659;28;20032;-59
2021/03/21 04:36:21;;;;;;;40.25;21.17;;;;;;;;;;5094556;28;20036;-59
2021/03/21 04:39:07;;;;;;;34.92;18.45;;;;;;;;;;5092171;28;20510;-58
2021/03/21 04:41:38;;;;;;;38.33;19.50;;;;;;;;;;5094488;28;20063;-57
2021/03/21 04:44:13;;;;;;;34.72;17.35;;;;;;;;;;5094621;28;20094;-58
2021/03/21 04:46:48;;;;;;;32.65;16.60;;;;;;;;;;5093651;28;20105;-57
2021/03/21 04:49:13;;;;;;;35.95;13.15;;;;;;;;;;5091572;28;20048;-59
2021/03/21 04:51:41;;;;;;;22.67;12.37;;;;;;;;;;5093149;28;20099;-57
2021/03/21 04:54:12;;;;;;;19.20;10.50;;;;;;;;;;5094105;28;20031;-58
2021/03/21 04:56:41;;;;;;;25.77;11.23;;;;;;;;;;5093555;28;20032;-58
2021/03/21 04:59:18;;;;;;;22.63;11.65;;;;;;;;;;5093990;28;20080;-59
2021/03/21 05:02:02;;;;;;;21.90;10.80;;;;;;;;;;5091938;28;20546;-57
2021/03/21 05:04:31;;;;;;;27.30;10.27;;;;;;;;;;5093869;28;20055;-58
2021/03/21 05:07:03;;;;;;;17.10;8.15;;;;;;;;;;5093002;28;20081;-58
2021/03/21 05:09:31;;;;;;;20.30;8.73;;;;;;;;;;5093867;28;20474;-59
2021/03/21 05:12:05;;;;;;;21.33;8.80;;;;;;;;;;5092783;28;20036;-58
2021/03/21 05:14:33;;;;;;;15.18;7.43;;;;;;;;;;5075630;28;20032;-58
2021/03/21 05:17:17;;;;;;;16.20;6.50;;;;;;;;;;5092953;28;20080;-58
2021/03/21 05:19:50;;;;;;;16.00;5.88;;;;;;;;;;5092985;28;20036;-59
2021/03/21 05:22:21;;;;;;;14.27;5.43;;;;;;;;;;5093236;28;20039;-59
2021/03/21 05:24:58;;;;;;;13.70;5.43;;;;;;;;;;5091614;28;20059;-58
2021/03/21 05:27:30;;;;;;;18.45;6.43;;;;;;;;;;5093423;28;20075;-59
2021/03/21 05:29:55;;;;;;;16.40;7.00;;;;;;;;;;5091418;28;20107;-58
2021/03/21 05:32:21;;;;;;;16.03;6.50;;;;;;;;;;5091794;28;20114;-58
2021/03/21 05:34:48;;;;;;;18.13;7.22;;;;;;;;;;5092287;28;20032;-57
2021/03/21 05:37:32;;;;;;;16.17;6.82;;;;;;;;;;5092565;28;20032;-57
2021/03/21 05:40:00;;;;;;;17.05;6.65;;;;;;;;;;5092486;28;20036;-59
2021/03/21 05:42:35;;;;;;;17.20;6.32;;;;;;;;;;5093244;28;20160;-58
2021/03/21 05:45:00;;;;;;;13.40;6.15;;;;;;;;;;5090979;28;20035;-59
2021/03/21 05:47:32;;;;;;;11.50;4.70;;;;;;;;;;5091600;28;20036;-58
2021/03/21 05:50:03;;;;;;;11.25;4.10;;;;;;;;;;5092703;28;20071;-58
2021/03/21 05:52:34;;;;;;;10.80;5.00;;;;;;;;;;5091178;28;20047;-58
2021/03/21 05:55:18;;;;;;;9.40;4.53;;;;;;;;;;5092360;28;20028;-58
2021/03/21 05:58:06;;;;;;;11.15;3.67;;;;;;;;;;5091365;28;20036;-58
2021/03/21 06:00:51;;;;;;;14.95;4.07;;;;;;;;;;5091632;28;20032;-58
2021/03/21 06:03:25;;;;;;;15.20;3.70;;;;;;;;;;5091804;28;20032;-58
2021/03/21 06:05:50;;;;;;;12.00;4.45;;;;;;;;;;5091249;28;20707;-59
2021/03/21 06:08:30;;;;;;;10.20;4.20;;;;;;;;;;5091068;28;20048;-60
2021/03/21 06:11:27;;;;;;;10.07;2.72;;;;;;;;;;5092019;28;20032;-59
2021/03/21 06:14:12;;;;;;;14.57;3.28;;;;;;;;;;5079463;27;20426;-57
2021/03/21 06:16:40;;;;;;;6.70;2.53;;;;;;;;;;5102950;28;20028;-58
2021/03/21 06:19:17;;;;;;;12.45;3.08;;;;;;;;;;5112163;28;20055;-58
2021/03/21 06:21:43;;;;;;;;;;;;;;;;;;5112903;28;20043;-58
2021/03/21 06:24:16;;;;;;;7.37;1.73;;;;;;;;;;5112248;28;19916;-58
2021/03/21 06:27:00;;;;;;;9.38;1.77;;;;;;;;;;5112721;28;20507;-58
2021/03/21 06:29:25;;;;;;;6.75;1.60;;;;;;;;;;5077294;28;20027;-59
2021/03/21 06:31:51;;;;;;;12.67;2.03;;;;;;;;;;5093773;28;20043;-57
2021/03/21 06:34:25;;;;;;;15.63;1.87;;;;;;;;;;5112266;28;20131;-59
2021/03/21 06:36:53;;;;;;;10.90;3.28;;;;;;;;;;5111890;28;20034;-55
2021/03/21 06:39:24;;;;;;;9.48;1.80;;;;;;;;;;5112557;28;20092;-58
2021/03/21 06:41:49;;;;;;;12.48;2.25;;;;;;;;;;5093932;28;20039;-58
2021/03/21 06:44:25;;;;;;;9.85;1.80;;;;;;;;;;5112327;28;20139;-58
2021/03/21 06:47:02;;;;;;;4.30;1.52;;;;;;;;;;5111774;28;20031;-58
2021/03/21 06:49:40;;;;;;;6.07;1.80;;;;;;;;;;5112059;28;20479;-58
2021/03/21 06:52:05;;;;;;;;;;;;;;;;;;5093437;28;20040;-59
2021/03/21 06:54:36;;;;;;;6.97;1.53;;;;;;;;;;5112134;28;19918;-59
2021/03/21 06:57:21;;;;;;;8.15;1.63;;;;;;;;;;5092522;28;20028;-58
2021/03/21 07:00:05;;;;;;;14.27;2.20;;;;;;;;;;5099880;28;20471;-59
2021/03/21 07:02:56;;;;;;;7.35;1.95;;;;;;;;;;5075169;28;20044;-57
2021/03/21 07:05:27;;;;;;;15.63;2.42;;;;;;;;;;5073693;28;20036;-59
2021/03/21 07:08:05;;;;;;;9.10;1.90;;;;;;;;;;5091329;28;20035;-58
2021/03/21 07:10:36;;;;;;;8.82;1.77;;;;;;;;;;5073521;28;20032;-59
2021/03/21 07:13:08;;;;;;;9.40;2.17;;;;;;;;;;5094969;28;20055;-58
2021/03/21 07:15:36;;;;;;;16.85;3.10;;;;;;;;;;5110804;28;20028;-58
2021/03/21 07:18:13;;;;;;;9.40;1.95;;;;;;;;;;5092780;28;20032;-57
2021/03/21 07:20:54;;;;;;;11.90;1.65;;;;;;;;;;5111202;28;20032;-59
2021/03/21 07:23:29;;;;;;;11.55;2.38;;;;;;;;;;5089644;28;20028;-59
2021/03/21 07:26:08;;;;;;;10.13;1.95;;;;;;;;;;5090108;28;20140;-58
2021/03/21 07:28:47;;;;;;;12.93;2.50;;;;;;;;;;5088854;28;20028;-58
2021/03/21 07:31:12;;;;;;;9.82;2.08;;;;;;;;;;5089634;28;20024;-59
2021/03/21 07:33:56;;;;;;;9.93;1.97;;;;;;;;;;5089818;28;20016;-58
2021/03/21 07:36:44;;;;;;;10.32;1.80;;;;;;;;;;5087960;28;20085;-58
2021/03/21 07:39:10;;;;;;;11.43;2.38;;;;;;;;;;5088658;28;20052;-58
2021/03/21 07:41:41;;;;;;;16.40;2.17;;;;;;;;;;5071550;28;20474;-59
2021/03/21 07:44:25;;;;;;;12.25;2.03;;;;;;;;;;5057393;28;20064;-58
2021/03/21 07:46:54;;;;;;;10.73;1.40;;;;;;;;;;5073522;28;20036;-59
2021/03/21 07:49:19;;;;;;;11.80;1.38;;;;;;;;;;5086806;28;20036;-58
2021/03/21 07:52:11;;;;;;;14.97;2.07;;;;;;;;;;5089998;28;20431;-58
2021/03/21 07:54:38;;;;;;;5.93;1.27;;;;;;;;;;5055747;28;20081;-59
2021/03/21 07:57:14;;;;;;;10.68;1.63;;;;;;;;;;5071115;28;20085;-59
2021/03/21 07:59:39;;;;;;;14.98;2.10;;;;;;;;;;5069513;28;20036;-58
2021/03/21 08:02:08;;;;;;;8.95;2.28;;;;;;;;;;5089046;28;20024;-60
2021/03/21 08:04:37;;;;;;;12.25;2.35;;;;;;;;;;5090458;28;20024;-58
2021/03/21 08:07:17;;;;;;;10.45;3.17;;;;;;;;;;5089923;28;20077;-58
2021/03/21 08:09:43;;;;;;;9.55;1.83;;;;;;;;;;5088843;28;20020;-59
2021/03/21 08:12:08;;;;;;;9.07;2.17;;;;;;;;;;5090253;28;20393;-59
2021/03/21 08:14:38;;;;;;;19.77;2.07;;;;;;;;;;5091628;28;20085;-58
2021/03/21 08:17:07;;;;;;;13.07;2.55;;;;;;;;;;5090018;28;20035;-59
2021/03/21 08:19:33;;;;;;;8.45;1.90;;;;;;;;;;5072216;28;20035;-58
2021/03/21 08:22:00;;;;;;;11.60;3.78;;;;;;;;;;5072437;28;20043;-57
2021/03/21 08:24:30;;;;;;;11.98;2.05;;;;;;;;;;5094259;28;20031;-59
2021/03/21 08:26:57;;;;;;;12.18;2.03;;;;;;;;;;5075539;28;20074;-58
2021/03/21 08:29:26;;;;;;;12.07;2.38;;;;;;;;;;5092831;28;20371;-58
2021/03/21 08:32:06;;;;;;;4.97;1.50;;;;;;;;;;5058259;28;20055;-59
2021/03/21 08:34:43;;;;;;;11.10;1.70;;;;;;;;;;5092156;28;20063;-59
2021/03/21 08:37:20;;;;;;;15.27;2.00;;;;;;;;;;5090921;28;20042;-57
2021/03/21 08:39:54;;;;;;;14.73;2.60;;;;;;;;;;5091445;28;20393;-59
2021/03/21 08:42:41;;;;;;;14.38;2.50;;;;;;;;;;5071699;28;20028;-58
2021/03/21 08:45:12;;;;;;;9.52;1.75;;;;;;;;;;5088199;28;20139;-58
2021/03/21 08:47:38;;;;;;;11.65;2.80;;;;;;;;;;5089983;28;20146;-58
2021/03/21 08:50:03;;;;;;;10.70;2.50;;;;;;;;;;5074130;28;20099;-58
2021/03/21 08:52:30;;;;;;;11.93;2.30;;;;;;;;;;5094371;28;20024;-58
2021/03/21 08:54:57;;;;;;;11.93;2.00;;;;;;;;;;5078828;28;20032;-58
2021/03/21 08:57:36;;;;;;;8.90;2.47;;;;;;;;;;5074545;28;20046;-58
2021/03/21 09:00:13;;;;;;;11.30;2.85;;;;;;;;;;5090747;28;20068;-58
2021/03/21 09:02:39;;;;;;;20.58;2.90;;;;;;;;;;5090037;28;20118;-58
2021/03/21 09:05:06;;;;;;;13.37;2.40;;;;;;;;;;5056925;28;20374;-58
2021/03/21 09:07:33;;;;;;;18.33;3.22;;;;;;;;;;5092568;28;20035;-58
2021/03/21 09:10:10;;;;;;;15.00;2.45;;;;;;;;;;5089657;28;20407;-59
2021/03/21 09:12:40;;;;;;;17.17;2.42;;;;;;;;;;5092012;28;20044;-57
2021/03/21 09:15:18;;;;;;;12.30;2.70;;;;;;;;;;5091574;28;20490;-57
2021/03/21 09:17:59;;;;;;;16.98;3.22;;;;;;;;;;5071972;28;20483;-58
2021/03/21 09:20:25;;;;;;;13.50;2.22;;;;;;;;;;5096976;28;20123;-59
2021/03/21 09:22:51;;;;;;;20.88;2.80;;;;;;;;;;5092359;28;20099;-59
2021/03/21 09:25:27;;;;;;;20.40;3.30;;;;;;;;;;5091688;28;20109;-58
2021/03/21 09:27:54;;;;;;;14.13;2.15;;;;;;;;;;5073788;28;20046;-59
2021/03/21 09:30:22;;;;;;;14.07;2.28;;;;;;;;;;5091659;28;20055;-58
2021/03/21 09:32:51;;;;;;;14.00;3.33;;;;;;;;;;5091594;28;20040;-58
2021/03/21 09:35:34;;;;;;;20.20;3.13;;;;;;;;;;5090581;28;20052;-58
2021/03/21 09:38:03;;;;;;;16.30;2.58;;;;;;;;;;5096797;28;20399;-59
2021/03/21 09:40:31;;;;;;;11.88;2.83;;;;;;;;;;5091415;28;20024;-58
2021/03/21 09:42:57;;;;;;;19.58;2.85;;;;;;;;;;5091472;28;20402;-58
2021/03/21 09:45:23;;;;;;;10.45;2.63;;;;;;;;;;5073071;28;20021;-58
2021/03/21 09:47:51;;;;;;;12.73;2.73;;;;;;;;;;5091791;28;20023;-59
2021/03/21 09:50:29;;;;;;;9.27;2.40;;;;;;;;;;5072431;28;20304;-58
2021/03/21 09:53:13;;;;;;;16.27;2.83;;;;;;;;;;5091706;28;20268;-59
2021/03/21 09:55:51;;;;;;;21.97;4.90;;;;;;;;;;5088319;28;20264;-59
2021/03/21 09:58:49;;;;;;;20.73;3.30;;;;;;;;;;5072477;28;20264;-58
2021/03/21 10:01:28;;;;;;;16.33;2.20;;;;;;;;;;5038657;28;20291;-59
2021/03/21 10:03:56;;;;;;;20.67;3.70;;;;;;;;;;5072470;28;20036;-59
2021/03/21 10:06:25;;;;;;;21.17;3.57;;;;;;;;;;5087971;28;20292;-58
2021/03/21 10:08:50;;;;;;;16.27;2.87;;;;;;;;;;5091809;28;20267;-58
2021/03/21 10:11:21;;;;;;;23.63;3.63;;;;;;;;;;5091031;28;20673;-58
2021/03/21 10:13:47;;;;;;;22.70;2.90;;;;;;;;;;5092100;28;20109;-59
2021/03/21 10:16:15;;;;;;;21.87;3.47;;;;;;;;;;5095870;28;20295;-58
2021/03/21 10:18:47;;;;;;;22.17;3.53;;;;;;;;;;5092837;28;20036;-59
2021/03/21 10:21:24;;;;;;;23.67;3.33;;;;;;;;;;5088351;28;20303;-58
2021/03/21 10:23:50;;;;;;;25.23;4.10;;;;;;;;;;5092540;28;20348;-59
2021/03/21 10:26:17;;;;;;;19.45;4.25;;;;;;;;;;5073976;28;20629;-59
2021/03/21 10:28:45;;;;;;;13.27;3.27;;;;;;;;;;5092405;28;20089;-59
2021/03/21 10:31:26;;;;;;;16.90;2.57;;;;;;;;;;5056519;28;20030;-59
2021/03/21 10:33:56;;;;;;;17.37;2.90;;;;;;;;;;5091645;28;20288;-59
2021/03/21 10:39:05;;;;;;;27.33;4.00;;;;;;;;;;5092244;28;20347;-59
2021/03/21 10:41:49;;;;;;;24.50;4.17;;;;;;;;;;5073495;28;20395;-58
2021/03/21 10:44:14;;;;;;;31.30;4.67;;;;;;;;;;5091777;28;20031;-58
2021/03/21 10:46:47;;;;;;;16.07;3.20;;;;;;;;;;5091116;28;20574;-59
2021/03/21 10:49:33;;;;;;;18.40;3.47;;;;;;;;;;5091093;28;20535;-56
2021/03/21 10:52:06;;;;;;;14.93;3.47;;;;;;;;;;5092136;28;20287;-58
2021/03/21 10:54:32;;;;;;;21.73;3.03;;;;;;;;;;5073315;28;20729;-58
2021/03/21 10:57:16;;;;;;;17.80;3.20;;;;;;;;;;5092285;28;20248;-57
2021/03/21 11:00:00;;;;;;;16.50;2.83;;;;;;;;;;5091748;28;20081;-58
2021/03/21 11:02:25;;;;;;;13.70;2.90;;;;;;;;;;5090033;28;20322;-58
2021/03/21 11:05:02;;;;;;;17.27;2.93;;;;;;;;;;5091646;28;20257;-59
2021/03/21 11:07:28;;;;;;;23.10;4.18;;;;;;;;;;5090795;28;20426;-58
2021/03/21 11:10:06;;;;;;;11.02;3.40;;;;;;;;;;5090906;28;20032;-59
2021/03/21 11:12:41;;;;;;;13.00;3.17;;;;;;;;;;5090871;28;20108;-58
2021/03/21 11:15:18;;;;;;;19.90;4.47;;;;;;;;;;5091561;28;20253;-59
2021/03/21 11:17:43;;;;;;;20.15;3.47;;;;;;;;;;5091214;28;20695;-57
2021/03/21 11:20:29;;;;;;;21.23;4.77;;;;;;;;;;5091398;28;20064;-59
2021/03/21 11:22:55;;;;;;;22.07;3.37;;;;;;;;;;5090840;28;20273;-58
2021/03/21 11:25:32;;;;;;;20.75;2.67;;;;;;;;;;5089147;28;20283;-58
2021/03/21 11:27:57;;;;;;;12.65;2.83;;;;;;;;;;5091860;28;20032;-58
2021/03/21 11:30:28;;;;;;;20.70;3.03;;;;;;;;;;5076536;28;20082;-58
2021/03/21 11:32:54;;;;;;;18.70;4.17;;;;;;;;;;5074652;28;20491;-59
2021/03/21 11:35:19;;;;;;;;;;;;;;;;;;5090594;28;20816;-58
2021/03/21 11:37:45;;;;;;;18.17;3.87;;;;;;;;;;5095388;28;19912;-59
2021/03/21 11:40:15;;;;;;;18.98;3.53;;;;;;;;;;5096028;28;20602;-58
2021/03/21 11:42:42;;;;;;;21.03;4.23;;;;;;;;;;5090444;28;20096;-58
2021/03/21 11:45:17;;;;;;;13.80;2.93;;;;;;;;;;5091525;28;20286;-59
2021/03/21 11:47:44;;;;;;;17.53;3.50;;;;;;;;;;5072011;28;20756;-58
2021/03/21 11:50:17;;;;;;;17.27;2.87;;;;;;;;;;5090420;28;20249;-58
2021/03/21 11:52:44;;;;;;;14.60;2.63;;;;;;;;;;5089322;28;20338;-58
2021/03/21 11:55:13;;;;;;;11.98;3.08;;;;;;;;;;5091730;28;20273;-58
2021/03/21 11:57:56;;;;;;;22.57;4.17;;;;;;;;;;5092199;28;20028;-58
2021/03/21 12:00:26;;;;;;;20.43;3.77;;;;;;;;;;5095641;28;20299;-58
2021/03/21 12:02:57;;;;;;;16.50;2.97;;;;;;;;;;5095802;28;20299;-58
2021/03/21 12:05:25;;;;;;;17.33;3.63;;;;;;;;;;5093950;28;20637;-58
2021/03/21 12:07:51;;;;;;;19.57;3.13;;;;;;;;;;5094968;28;20232;-58
2021/03/21 12:10:30;;;;;;;10.68;2.65;;;;;;;;;;5077213;28;20325;-59
2021/03/21 12:12:56;;;;;;;15.43;3.20;;;;;;;;;;5094960;28;20047;-60
2021/03/21 12:15:24;;;;;;;22.33;4.43;;;;;;;;;;5095297;28;20356;-57
2021/03/21 12:17:59;;;;;;;20.03;4.10;;;;;;;;;;5095425;28;20089;-59
2021/03/21 12:20:37;;;;;;;22.30;4.20;;;;;;;;;;5093778;28;20269;-58
2021/03/21 12:23:04;;;;;;;19.43;4.60;;;;;;;;;;5094819;28;20272;-58
2021/03/21 12:25:30;;;;;;;19.00;4.30;;;;;;;;;;5094232;28;20696;-58
2021/03/21 12:28:14;;;;;;;21.97;4.03;;;;;;;;;;5076876;28;20030;-59
2021/03/21 12:30:41;;;;;;;17.07;3.10;;;;;;;;;;5094315;28;20755;-59
2021/03/21 12:33:15;;;;;;;21.90;4.27;;;;;;;;;;5094489;28;20610;-60
2021/03/21 12:35:41;;;;;;;29.83;3.83;;;;;;;;;;5093562;28;20298;-59
2021/03/21 12:38:23;;;;;;;27.55;4.00;;;;;;;;;;5094856;28;20318;-59
2021/03/21 12:40:48;;;;;;;23.40;4.37;;;;;;;;;;5094265;28;20093;-57
2021/03/21 12:43:30;;;;;;;25.47;5.80;;;;;;;;;;5095095;28;20261;-59
2021/03/21 12:46:10;;;;;;;17.17;3.33;;;;;;;;;;5094473;28;20039;-58
2021/03/21 12:48:47;;;;;;;28.67;4.53;;;;;;;;;;5058638;28;20276;-58
2021/03/21 12:51:26;;;;;;;22.35;3.75;;;;;;;;;;5093458;28;20281;-60
2021/03/21 12:53:52;;;;;;;22.97;4.23;;;;;;;;;;5092558;28;20063;-60
2021/03/21 12:56:17;;;;;;;15.63;3.30;;;;;;;;;;5076243;28;20779;-58
2021/03/21 12:58:42;;;;;;;22.70;4.30;;;;;;;;;;5096217;28;20288;-59
2021/03/21 13:01:08;;;;;;;33.03;4.83;;;;;;;;;;5088458;28;20451;-59
2021/03/21 13:03:34;;;;;;;27.70;5.53;;;;;;;;;;5106101;28;20111;-58
2021/03/21 13:06:00;;;;;;;21.55;4.40;;;;;;;;;;5086686;28;20028;-59
2021/03/21 13:08:27;;;;;;;30.98;4.32;;;;;;;;;;5076383;28;20199;-58
2021/03/21 13:10:52;;;;;;;27.60;7.63;;;;;;;;;;5093034;28;20020;-58
2021/03/21 13:13:18;;;;;;;16.37;2.87;;;;;;;;;;5100847;28;20368;-55
2021/03/21 13:15:44;;;;;;;20.43;4.50;;;;;;;;;;5105761;28;20028;-56
2021/03/21 13:18:10;;;;;;;22.35;4.45;;;;;;;;;;5087211;28;20294;-57
2021/03/21 13:20:35;;;;;;;18.42;2.90;;;;;;;;;;5092690;28;20161;-56
2021/03/21 13:23:01;;;;;;;17.63;3.50;;;;;;;;;;5093724;28;20169;-56
2021/03/21 13:25:28;;;;;;;15.52;3.67;;;;;;;;;;5094409;28;20053;-55
2021/03/21 13:27:54;;;;;;;18.93;3.57;;;;;;;;;;5093105;28;20468;-57
2021/03/21 13:30:20;;;;;;;21.33;3.88;;;;;;;;;;5092024;28;20272;-57
2021/03/21 13:32:46;;;;;;;13.82;2.97;;;;;;;;;;5080554;28;20079;-58
2021/03/21 13:35:12;;;;;;;17.75;3.15;;;;;;;;;;5082746;28;20032;-57
2021/03/21 13:37:37;;;;;;;21.17;3.60;;;;;;;;;;5048741;28;20365;-57
2021/03/21 13:40:04;;;;;;;20.47;3.93;;;;;;;;;;5085509;28;20070;-56
2021/03/21 13:42:29;;;;;;;27.87;4.13;;;;;;;;;;5093608;28;20181;-57
2021/03/21 13:44:56;;;;;;;14.48;3.28;;;;;;;;;;5093091;28;20368;-57
2021/03/21 13:47:21;;;;;;;28.15;5.10;;;;;;;;;;5093477;28;20135;-56
2021/03/21 13:49:47;;;;;;;19.27;3.45;;;;;;;;;;5083200;28;20039;-57
2021/03/21 13:52:13;;;;;;;18.10;3.30;;;;;;;;;;5055109;28;20032;-56
2021/03/21 13:54:38;;;;;;;21.60;4.50;;;;;;;;;;5072036;28;20048;-57
2021/03/21 13:57:06;;;;;;;22.50;4.07;;;;;;;;;;5072908;28;20028;-56
2021/03/21 13:59:31;;;;;;;20.60;4.07;;;;;;;;;;5080654;28;20501;-57
2021/03/21 14:01:57;;;;;;;16.07;2.93;;;;;;;;;;5092557;28;20260;-57
2021/03/21 14:04:22;;;;;;;20.77;3.47;;;;;;;;;;5073827;28;20036;-57
2021/03/21 14:06:49;;;;;;;19.60;3.40;;;;;;;;;;5092384;28;20024;-57
2021/03/21 14:09:14;;;;;;;44.85;7.38;;;;;;;;;;5092556;28;20263;-58
2021/03/21 14:11:40;;;;;;;13.57;2.73;;;;;;;;;;5092076;28;20032;-57
2021/03/21 14:14:05;;;;;;;17.53;4.13;;;;;;;;;;5092809;28;20078;-57
2021/03/21 14:16:30;;;;;;;25.60;5.70;;;;;;;;;;5092552;28;20479;-56
2021/03/21 14:18:56;;;;;;;25.17;4.00;;;;;;;;;;5091109;28;20432;-56
2021/03/21 14:21:21;;;;;;;21.63;3.83;;;;;;;;;;5092763;28;20424;-56
2021/03/21 14:23:46;;;;;;;26.23;4.57;;;;;;;;;;5091002;28;20040;-56
2021/03/21 14:26:12;;;;;;;20.13;3.50;;;;;;;;;;5074398;28;20028;-56
2021/03/21 14:28:37;;;;;;;23.03;2.80;;;;;;;;;;5092290;28;20032;-56
2021/03/21 14:31:04;;;;;;;24.15;4.70;;;;;;;;;;5092010;28;20043;-58
2021/03/21 14:33:29;;;;;;;15.05;3.17;;;;;;;;;;5091032;28;20546;-57
2021/03/21 14:35:55;;;;;;;30.20;5.10;;;;;;;;;;5091812;28;20108;-56
2021/03/21 14:38:21;;;;;;;25.00;4.43;;;;;;;;;;5073599;28;20055;-55
2021/03/21 14:40:47;;;;;;;22.77;4.05;;;;;;;;;;5091785;28;20154;-56
2021/03/21 14:43:13;;;;;;;14.43;3.40;;;;;;;;;;5092277;28;20078;-55
2021/03/21 14:45:39;;;;;;;23.92;4.50;;;;;;;;;;5092185;28;20020;-55
2021/03/21 14:48:05;;;;;;;21.98;3.97;;;;;;;;;;5091472;28;20035;-55
2021/03/21 14:50:30;;;;;;;18.43;4.43;;;;;;;;;;5091676;28;20039;-56
2021/03/21 14:52:56;;;;;;;22.37;3.07;;;;;;;;;;5090937;28;20277;-55
2021/03/21 14:55:22;;;;;;;17.67;3.53;;;;;;;;;;5092183;28;20043;-58
2021/03/21 14:57:48;;;;;;;14.93;2.58;;;;;;;;;;5091362;28;20040;-55